• Join FlightAware (Why Join?)
  • Login
  • US Flag 
07:54AM EDT


 

Airport Tracker/Info


-or-


 

Live Flight TrackerFlight Track Log ✈ N478DR ✈ 12-Sep-2013 ✈ KSTP - KCMH

Flight Track Log - Related Links

Times and Time Zones

All times are in EDT time to prevent confusion due to time zone crossing. See the N478DR flight status page for this flight to view local times or setup timezone preferences in your user account.

Time Position Orientation Groundspeed Altitude Reporting Facility
EDT Latitude Longitude Course Direction KTS MPH feet Rate Location/Type
10:10AM 44.9500 -93.0667 19° North 178 205 1,600  Level Minneapolis TRACON
10:10AM 44.9794 -93.0519 19° North 218 251 2,500 2,280 Climbing Minneapolis Center
10:11AM 45.0239 -92.9817 48° Northeast 239 275 5,300 3,000 Climbing Minneapolis Center
10:13AM 45.0236 -92.8753 90° East 299 344 8,800 3,420 Climbing Minneapolis Center
10:14AM 44.9653 -92.7797 131° Southeast 319 367 12,400 2,820 Climbing Minneapolis Center
10:15AM 44.8769 -92.6586 136° Southeast 371 427 14,700 1,860 Climbing Minneapolis Center
10:16AM 44.7969 -92.5456 135° Southeast 403 464 16,300 1,080 Climbing Minneapolis Center
10:17AM 44.7103 -92.4233 135° Southeast 438 504 17,000 780 Climbing Minneapolis Center
10:19AM 44.5275 -92.1561 134° Southeast 475 547 18,800 960 Climbing Minneapolis Center
10:20AM 44.4494 -92.0042 126° Southeast 480 552 20,000 1,200 Climbing Minneapolis Center
10:21AM 44.3703 -91.8519 126° Southeast 482 555 21,400 1,500 Climbing Minneapolis Center
10:22AM 44.2953 -91.6553 118° Southeast 481 554 23,200 1,560 Climbing Minneapolis Center
10:23AM 44.2317 -91.4892 118° Southeast 484 557 24,700 1,440 Climbing Minneapolis Center
10:24AM 44.1686 -91.3219 118° Southeast 487 560 26,200 1,380 Climbing Minneapolis Center
10:25AM 44.1106 -91.1714 118° Southeast 488 562 27,600 360 Climbing Minneapolis Center
10:26AM 44.0300 -90.9636 118° Southeast 505 581 27,000 -300 Descending Minneapolis Center
10:27AM 43.9544 -90.7728 119° Southeast 554 638 27,000  Level Minneapolis Center
10:28AM 43.8817 -90.5864 118° Southeast 552 635 27,000  Level Minneapolis Center
10:29AM 43.8239 -90.4428 119° Southeast 551 634 27,000  Level Chicago Center
10:30AM 43.7511 -90.2572 118° Southeast 552 635 27,000  Level Chicago Center
10:31AM 43.6761 -90.0722 119° Southeast 553 636 27,000  Level Chicago Center
10:32AM 43.5867 -89.8508 119° Southeast 553 636 27,000  Level Chicago Center
10:33AM 43.5069 -89.6731 122° Southeast 551 634 27,000  Level Chicago Center
10:34AM 43.4156 -89.5019 126° Southeast 555 639 27,000  Level Chicago Center
10:35AM 43.3267 -89.3331 126° Southeast 551 634 27,000  Level Chicago Center
10:36AM 43.2369 -89.1644 126° Southeast 551 634 27,000  Level Chicago Center
10:37AM 43.1300 -88.9664 126° Southeast 545 627 27,000  Level Chicago Center
10:38AM 43.0378 -88.7906 126° Southeast 541 623 27,000  Level Chicago Center
10:39AM 42.9483 -88.6261 127° Southeast 542 624 27,000  Level Chicago Center
10:40AM 42.8614 -88.4639 126° Southeast 534 615 27,000  Level Chicago Center
10:41AM 42.7744 -88.3075 127° Southeast 523 602 27,000  Level Chicago Center
10:42AM 42.6892 -88.1483 126° Southeast 522 601 27,000  Level Chicago Center
10:43AM 42.5858 -87.9614 127° Southeast 519 597 27,000  Level Chicago Center
10:44AM 42.4989 -87.8056 127° Southeast 520 598 27,000  Level Chicago Center
10:45AM 42.4136 -87.6514 127° Southeast 513 590 27,000  Level Chicago Center
10:46AM 42.3269 -87.4975 127° Southeast 515 593 27,000  Level Chicago Center
10:47AM 42.2403 -87.3439 127° Southeast 515 593 27,000  Level Chicago Center
10:48AM 42.1536 -87.1911 127° Southeast 515 593 27,000  Level Chicago Center
10:50AM 42.0489 -87.0089 128° Southeast 515 593 27,000  Level Chicago Center
10:51AM 41.9603 -86.8531 127° Southeast 524 603 27,000  Level Chicago Center
10:52AM 41.8739 -86.7039 128° Southeast 511 588 27,000  Level Chicago Center
10:53AM 41.7919 -86.5617 128° Southeast 500 575 27,000  Level Chicago Center
10:54AM 41.7081 -86.4200 128° Southeast 492 566 27,000  Level Chicago Center
10:55AM 41.6244 -86.2764 128° Southeast 492 566 27,000  Level Chicago Center
10:56AM 41.5247 -86.1025 127° Southeast 495 570 27,000 -300 Level Chicago Center
10:57AM 41.4472 -85.9481 124° Southeast 504 580 26,400 -780 Descending Chicago Center
10:58AM 41.3681 -85.7900 124° Southeast 517 595 25,500 -720 Descending Chicago Center
10:59AM 41.2906 -85.6311 123° Southeast 519 597 25,000 -300 Descending Chicago Center
11:00AM 41.2153 -85.4828 124° Southeast 497 572 25,000  Level Chicago Center
11:01AM 41.1264 -85.3114 125° Southeast 480 552 25,000  Level Chicago Center
11:02AM 41.0494 -85.1572 123° Southeast 501 577 25,000 -300 Level Chicago Center
11:03AM 40.9736 -85.0081 124° Southeast 496 571 24,500 -780 Descending Chicago Center
11:04AM 40.8978 -84.8633 125° Southeast 486 559 23,400 -780 Descending Chicago Center
11:05AM 40.8331 -84.7067 119° Southeast 491 565 23,000 -240 Descending Chicago Center
11:06AM 40.7831 -84.5486 113° Southeast 475 547 23,000  Level Chicago Center
11:07AM 40.7303 -84.3800 112° Southeast 458 527 23,000  Level Indianapolis Center
11:08AM 40.6739 -84.1972 112° Southeast 449 517 23,000 -840 Level Indianapolis Center
11:09AM 40.6242 -84.0439 113° Southeast 453 521 21,300 -2,040 Descending Indianapolis Center
11:10AM 40.5753 -83.8858 112° Southeast 465 535 18,800 -2,400 Descending Indianapolis Center
11:11AM 40.5406 -83.7847 114° Southeast 399 459 17,200 -2,160 Descending Indianapolis Center
11:11AM 40.5300 -83.7497 112° Southeast 417 480 16,600 -2,220 Descending Indianapolis Center
11:12AM 40.5133 -83.7000 114° Southeast 403 464 15,900 -2,040 Descending Indianapolis Center
11:12AM 40.4875 -83.6131 111° Southeast 405 466 14,500 -2,160 Descending Indianapolis Center
11:13AM 40.4656 -83.5486 114° Southeast 398 458 13,500 -1,980 Descending Indianapolis Center
11:13AM 40.4433 -83.4817 114° Southeast 396 456 12,500 -1,860 Descending Indianapolis Center
11:14AM 40.4236 -83.4397 122° Southeast 385 443 11,800 -2,100 Descending Indianapolis Center
11:14AM 40.3892 -83.3611 120° Southeast 384 442 10,400 -1,680 Descending Indianapolis Center
11:15AM 40.3667 -83.3147 122° Southeast 382 440 10,100 -300 Descending Indianapolis Center
11:15AM 40.3197 -83.2136 121° Southeast 374 430 10,100 -60 Level Indianapolis Center
11:16AM 40.2697 -83.1008 120° Southeast 379 436 10,000 -540 Descending Indianapolis Center
11:17AM 40.2506 -83.0594 121° Southeast 376 433 9,400 -1,500 Descending Indianapolis Center
11:17AM 40.2181 -82.9897 121° Southeast 362 417 8,500 -1,500 Descending Indianapolis Center
11:18AM 40.2019 -82.9528 120° Southeast 331 381 7,900 -1,500 Descending Indianapolis Center
11:18AM 40.1747 -82.8894 119° Southeast 324 373 7,000 -1,560 Descending Indianapolis Center
11:19AM 40.1619 -82.8644 124° Southeast 290 334 6,500 -1,500 Descending Indianapolis Center
11:20AM 40.1336 -82.7975 119° Southeast 299 344 5,500 -1,500 Descending Indianapolis Center
11:20AM 40.1203 -82.7703 123° Southeast 297 342 5,000 -1,620 Descending Indianapolis Center
11:21AM 40.0911 -82.7044 120° Southeast 299 344 3,900 -1,440 Descending Indianapolis Center
11:21AM 40.0639 -82.6764 142° Southeast 284 327 3,400 -1,200 Descending Indianapolis Center
11:22AM 40.0239 -82.6644 167° South 292 336 2,700 -540 Descending Indianapolis Center
11:22AM 39.9925 -82.6764 196° South 224 258 2,800  Climbing Indianapolis Center
11:23AM 39.9856 -82.7103 255° West 253 291 2,700  Descending Indianapolis Center
11:23AM 39.9772 -82.7503 255° West 201 231 2,800 -300 Climbing Indianapolis Center
11:24AM 39.9856 -82.7972 283° West 216 249 2,400 -720 Descending Indianapolis Center
11:24AM 39.9881 -82.8147 281° West 195 224 2,200 -1,080 Descending Indianapolis Center
11:25AM 39.9897 -82.8514 273° West 170 196 1,300 -1,200 Descending Indianapolis Center
11:25AM 39.9917 -82.8644 281° West 120 138 1,000 -1,440 Descending Indianapolis Center